Time;durP1;ratioP1;P1;durP2;ratioP2;P2;SDS_P1;SDS_P2;PMS_P1;PMS_P2;Temp;Humidity;BMP_temperature;BMP_pressure;BME280_temperature;BME280_humidity;BME280_pressure;Samples;Min_cycle;Max_cycle;Signal;HPM_P1;HPM_P2
2023/04/11 00:00:38;;;;;;;;;;;21.00;51.50;;;;;;4745729;58;20085;-30
2023/04/11 00:05:38;;;;;;;;;;;21.00;51.00;;;;;;4805647;55;20310;-29
2023/04/11 00:10:39;;;;;;;;;;;21.00;51.50;;;;;;4845533;55;20140;-28
2023/04/11 00:15:40;;;;;;;;;;;21.00;51.50;;;;;;4746241;58;20072;-28
2023/04/11 00:20:40;;;;;;;;;;;21.00;51.50;;;;;;4745465;58;20108;-26
2023/04/11 00:25:41;;;;;;;;;;;21.00;51.60;;;;;;4777257;55;20112;-28
2023/04/11 00:30:41;;;;;;;;;;;21.00;51.50;;;;;;4746607;58;20064;-28
2023/04/11 00:35:42;;;;;;;;;;;21.00;51.50;;;;;;4745587;58;20112;-28
2023/04/11 00:40:43;;;;;;;;;;;21.00;51.50;;;;;;4745623;58;20314;-29
2023/04/11 00:45:44;;;;;;;;;;;21.00;51.50;;;;;;4767722;55;20080;-31
2023/04/11 00:50:45;;;;;;;;;;;21.00;51.50;;;;;;4746947;58;20076;-29
2023/04/11 00:55:45;;;;;;;;;;;21.00;51.50;;;;;;4746807;58;20103;-28
2023/04/11 01:00:48;;;;;;;;;;;20.90;51.40;;;;;;4747975;55;20842;-30
2023/04/11 01:05:51;;;;;;;;;;;21.00;51.50;;;;;;4746838;58;20072;-28
2023/04/11 01:10:51;;;;;;;;;;;21.00;51.50;;;;;;4746899;58;20297;-26
2023/04/11 01:15:52;;;;;;;;;;;21.00;51.50;;;;;;4790362;55;20052;-27
2023/04/11 01:20:57;;;;;;;;;;;21.00;51.50;;;;;;4779992;55;20109;-27
2023/04/11 01:25:58;;;;;;;;;;;20.90;51.40;;;;;;4778225;55;20313;-29
2023/04/11 01:30:59;;;;;;;;;;;20.90;51.40;;;;;;4746606;58;20148;-28
2023/04/11 01:35:59;;;;;;;;;;;21.00;51.50;;;;;;4759782;55;20088;-26
2023/04/11 01:41:01;;;;;;;;;;;20.90;51.40;;;;;;4769143;55;20124;-27
2023/04/11 01:46:02;;;;;;;;;;;20.90;51.40;;;;;;4765523;55;20267;-24
2023/04/11 01:51:03;;;;;;;;;;;20.90;51.40;;;;;;4750988;55;20299;-28
2023/04/11 01:56:07;;;;;;;;;;;20.90;51.40;;;;;;4793369;55;20112;-30
2023/04/11 02:01:07;;;;;;;;;;;20.90;51.40;;;;;;4745707;56;20092;-29
2023/04/11 02:06:08;;;;;;;;;;;20.90;51.40;;;;;;4831192;55;20251;-28
2023/04/11 02:11:09;;;;;;;;;;;20.90;51.40;;;;;;4840579;55;20119;-27
2023/04/11 02:16:13;;;;;;;;;;;20.90;51.50;;;;;;4923712;55;20092;-28
2023/04/11 02:21:14;;;;;;;;;;;20.90;51.50;;;;;;4898651;55;20279;-27
2023/04/11 02:26:15;;;;;;;;;;;20.90;51.40;;;;;;4820709;55;20061;-28
2023/04/11 02:31:15;;;;;;;;;;;20.90;51.40;;;;;;4746481;58;20347;-28
2023/04/11 02:36:16;;;;;;;;;;;20.90;51.40;;;;;;4745850;58;20065;-31
2023/04/11 02:41:16;;;;;;;;;;;20.90;51.40;;;;;;4745576;58;20164;-29
2023/04/11 02:46:17;;;;;;;;;;;20.90;51.40;;;;;;4804868;55;20354;-29
2023/04/11 02:51:18;;;;;;;;;;;20.90;51.40;;;;;;4746142;58;20155;-25
2023/04/11 02:56:19;;;;;;;;;;;20.90;51.50;;;;;;4890031;55;20072;-31
2023/04/11 03:01:21;;;;;;;;;;;20.90;51.40;;;;;;4776655;55;20076;-29
2023/04/11 03:06:22;;;;;;;;;;;20.90;51.40;;;;;;4836470;55;20092;-27
2023/04/11 03:11:23;;;;;;;;;;;20.90;51.40;;;;;;4746395;58;20105;-28
2023/04/11 03:16:24;;;;;;;;;;;20.90;51.50;;;;;;4750062;55;20124;-29
2023/04/11 03:21:26;;;;;;;;;;;20.90;51.50;;;;;;4863771;55;20314;-30
2023/04/11 03:26:26;;;;;;;;;;;20.90;51.50;;;;;;4831054;55;20374;-30
2023/04/11 03:31:29;;;;;;;;;;;20.90;51.50;;;;;;4788821;55;20072;-27
2023/04/11 03:36:31;;;;;;;;;;;20.90;51.40;;;;;;4745486;58;20350;-26
2023/04/11 03:41:31;;;;;;;;;;;20.90;51.40;;;;;;4872913;55;20278;-28
2023/04/11 03:46:32;;;;;;;;;;;20.90;51.40;;;;;;4750763;55;20108;-28
2023/04/11 03:51:33;;;;;;;;;;;20.90;51.50;;;;;;4768447;55;20306;-27
2023/04/11 03:56:33;;;;;;;;;;;20.90;51.50;;;;;;4746689;55;20089;-27
2023/04/11 04:01:36;;;;;;;;;;;20.90;51.50;;;;;;4769607;55;20120;-27
2023/04/11 04:06:37;;;;;;;;;;;20.90;51.60;;;;;;4804770;55;20379;-27
2023/04/11 04:11:38;;;;;;;;;;;20.90;51.60;;;;;;4746466;58;20072;-29
2023/04/11 04:16:38;;;;;;;;;;;20.90;51.60;;;;;;4746032;58;20104;-30
2023/04/11 04:21:40;;;;;;;;;;;20.80;51.60;;;;;;4838109;55;20143;-27
2023/04/11 04:26:40;;;;;;;;;;;20.80;51.60;;;;;;4747062;58;20060;-28
2023/04/11 04:31:41;;;;;;;;;;;20.80;51.50;;;;;;4750498;55;20105;-29
2023/04/11 04:36:45;;;;;;;;;;;20.80;51.50;;;;;;4892976;55;20072;-26
2023/04/11 04:41:56;;;;;;;;;;;20.80;51.60;;;;;;4769051;55;20298;-29
2023/04/11 04:46:57;;;;;;;;;;;20.80;51.50;;;;;;4798800;55;20099;-31
2023/04/11 04:51:58;;;;;;;;;;;20.80;51.60;;;;;;4782403;55;20148;-32
2023/04/11 04:56:58;;;;;;;;;;;20.80;51.50;;;;;;4753977;55;20099;-30
2023/04/11 05:01:59;;;;;;;;;;;20.80;51.50;;;;;;4745779;58;20382;-30
2023/04/11 05:07:00;;;;;;;;;;;20.80;51.50;;;;;;4753985;55;20068;-28
2023/04/11 05:12:01;;;;;;;;;;;20.80;51.50;;;;;;4907408;55;20120;-27
2023/04/11 05:17:01;;;;;;;;;;;20.80;51.50;;;;;;4844136;55;20060;-30
2023/04/11 05:22:02;;;;;;;;;;;20.80;51.50;;;;;;4791306;55;20109;-28
2023/04/11 05:27:03;;;;;;;;;;;20.80;51.50;;;;;;4746292;58;20058;-27
2023/04/11 05:32:04;;;;;;;;;;;20.80;51.50;;;;;;4910544;55;20127;-28
2023/04/11 05:37:05;;;;;;;;;;;20.80;51.50;;;;;;4862946;55;20271;-27
2023/04/11 05:42:06;;;;;;;;;;;20.80;51.50;;;;;;4745889;58;20327;-28
2023/04/11 05:47:07;;;;;;;;;;;20.80;51.50;;;;;;4765974;55;20068;-28
2023/04/11 05:52:07;;;;;;;;;;;20.80;51.50;;;;;;4746672;58;20342;-28
2023/04/11 05:57:08;;;;;;;;;;;20.80;51.50;;;;;;4767080;55;20061;-28
2023/04/11 06:02:09;;;;;;;;;;;20.80;51.50;;;;;;4758994;55;20104;-29
2023/04/11 06:07:10;;;;;;;;;;;20.80;51.40;;;;;;4748208;55;20355;-29
2023/04/11 06:12:10;;;;;;;;;;;20.80;51.40;;;;;;4799229;55;20117;-27
2023/04/11 06:17:11;;;;;;;;;;;20.80;51.40;;;;;;4746870;58;20113;-27
2023/04/11 06:22:13;;;;;;;;;;;20.80;51.40;;;;;;4793901;55;20124;-28
2023/04/11 06:27:14;;;;;;;;;;;20.80;51.40;;;;;;4746499;58;20136;-27
2023/04/11 06:32:15;;;;;;;;;;;20.80;51.40;;;;;;4848876;55;20096;-30
2023/04/11 06:37:17;;;;;;;;;;;20.80;51.40;;;;;;4756599;55;20108;-27
2023/04/11 06:42:17;;;;;;;;;;;20.80;51.40;;;;;;4788385;55;20092;-28
2023/04/11 06:47:18;;;;;;;;;;;20.80;51.50;;;;;;4769916;55;20378;-28
2023/04/11 06:52:19;;;;;;;;;;;20.80;51.50;;;;;;4748033;55;20068;-27
2023/04/11 06:57:20;;;;;;;;;;;20.80;51.40;;;;;;4819650;55;20081;-28
2023/04/11 07:02:23;;;;;;;;;;;20.80;51.50;;;;;;4810661;55;20049;-29
2023/04/11 07:07:24;;;;;;;;;;;20.80;51.40;;;;;;4855395;55;21018;-28
2023/04/11 07:12:25;;;;;;;;;;;20.80;51.40;;;;;;4746249;58;20080;-28
2023/04/11 07:17:25;;;;;;;;;;;20.80;51.50;;;;;;4746424;55;20056;-27
2023/04/11 07:22:28;;;;;;;;;;;20.80;51.40;;;;;;4784244;55;20131;-23
2023/04/11 07:27:28;;;;;;;;;;;20.80;51.70;;;;;;4744741;58;20342;-29
2023/04/11 07:32:29;;;;;;;;;;;20.90;52.00;;;;;;4757475;55;20168;-25
2023/04/11 07:37:30;;;;;;;;;;;20.90;52.20;;;;;;4766128;55;20148;-21
2023/04/11 07:42:31;;;;;;;;;;;20.90;52.20;;;;;;4743799;58;20285;-23
2023/04/11 07:47:34;;;;;;;;;;;21.00;52.20;;;;;;4757236;55;20065;-26
2023/04/11 07:52:35;;;;;;;;;;;21.00;52.30;;;;;;4754516;55;20350;-27
2023/04/11 07:57:36;;;;;;;;;;;21.00;52.40;;;;;;4744154;58;20108;-26
2023/04/11 08:02:36;;;;;;;;;;;21.10;52.50;;;;;;4742013;58;20123;-26
2023/04/11 08:07:37;;;;;;;;;;;21.10;52.90;;;;;;4744183;58;20366;-28
2023/04/11 08:12:38;;;;;;;;;;;21.10;52.50;;;;;;4747479;55;20161;-22
2023/04/11 08:17:39;;;;;;;;;;;21.20;52.60;;;;;;4744195;55;20096;-26
2023/04/11 08:22:43;;;;;;;;;;;21.20;52.60;;;;;;4759597;55;20382;-25
2023/04/11 08:27:43;;;;;;;;;;;21.20;52.90;;;;;;4761464;55;20069;-26
2023/04/11 08:32:44;;;;;;;;;;;21.20;52.90;;;;;;4746718;55;20298;-27
2023/04/11 08:37:45;;;;;;;;;;;21.20;53.10;;;;;;4743412;55;20116;-26
2023/04/11 08:42:45;;;;;;;;;;;21.30;53.20;;;;;;4766809;55;20134;-29
2023/04/11 08:47:46;;;;;;;;;;;21.30;53.20;;;;;;4744138;55;20176;-25
2023/04/11 08:52:48;;;;;;;;;;;21.40;53.50;;;;;;4758735;55;20105;-24
2023/04/11 08:57:49;;;;;;;;;;;21.40;54.30;;;;;;4777062;55;20330;-26
2023/04/11 09:02:57;;;;;;;;;;;21.40;54.10;;;;;;4747187;55;20129;-25
2023/04/11 09:08:03;;;;;;;;;;;21.40;55.20;;;;;;4769031;55;20171;-26
2023/04/11 09:13:22;;;;;;;;;;;21.40;56.40;;;;;;4752615;55;20362;-25
2023/04/11 09:18:32;;;;;;;;;;;21.40;55.80;;;;;;4744187;56;20167;-26
2023/04/11 09:23:33;;;;;;;;;;;21.50;56.20;;;;;;4772559;55;20123;-27
2023/04/11 09:28:44;;;;;;;;;;;21.50;56.20;;;;;;4746229;55;20287;-26
2023/04/11 09:33:52;;;;;;;;;;;21.50;56.30;;;;;;4746542;55;20270;-24
2023/04/11 09:38:53;;;;;;;;;;;21.50;56.40;;;;;;4750346;55;20123;-24
2023/04/11 09:43:54;;;;;;;;;;;21.50;56.20;;;;;;4764506;55;20128;-24
2023/04/11 09:48:55;;;;;;;;;;;21.50;56.30;;;;;;4747498;55;20060;-26
2023/04/11 09:53:56;;;;;;;;;;;21.50;56.40;;;;;;4744657;58;20286;-25
2023/04/11 09:59:00;;;;;;;;;;;21.60;56.50;;;;;;4746696;55;20100;-21
2023/04/11 10:04:03;;;;;;;;;;;21.60;57.20;;;;;;4754798;55;20468;-27
2023/04/11 10:09:08;;;;;;;;;;;21.50;56.60;;;;;;4762945;55;20104;-31
2023/04/11 10:14:40;;;;;;;;;;;21.50;56.50;;;;;;4780201;55;20338;-25
2023/04/11 10:19:42;;;;;;;;;;;21.50;56.60;;;;;;4745067;55;20846;-26
2023/04/11 10:25:13;;;;;;;;;;;21.50;56.50;;;;;;4758917;55;20267;-27
2023/04/11 10:30:14;;;;;;;;;;;21.50;56.50;;;;;;4766216;55;20101;-20
2023/04/11 10:35:24;;;;;;;;;;;21.50;56.40;;;;;;4743823;58;20441;-27
2023/04/11 10:40:25;;;;;;;;;;;21.50;56.50;;;;;;4745297;58;20310;-29
2023/04/11 10:45:26;;;;;;;;;;;21.50;56.40;;;;;;4745009;58;20056;-28
2023/04/11 10:50:38;;;;;;;;;;;21.50;56.80;;;;;;4771969;55;20064;-29
2023/04/11 10:55:45;;;;;;;;;;;21.50;56.10;;;;;;4745444;55;20302;-32
2023/04/11 11:01:31;;;;;;;;;;;21.50;56.00;;;;;;4745417;58;20290;-28
2023/04/11 11:06:32;;;;;;;;;;;21.50;55.90;;;;;;4760325;55;20080;-30
2023/04/11 11:11:33;;;;;;;;;;;21.50;55.80;;;;;;4745414;58;20088;-29
2023/04/11 11:16:34;;;;;;;;;;;21.50;55.70;;;;;;4812651;55;20072;-29
2023/04/11 11:21:34;;;;;;;;;;;21.40;55.60;;;;;;4752886;55;20068;-27
2023/04/11 11:26:36;;;;;;;;;;;21.40;55.80;;;;;;4744182;58;20119;-24
2023/04/11 11:31:41;;;;;;;;;;;21.40;53.90;;;;;;4805436;55;20092;-24
2023/04/11 11:36:42;;;;;;;;;;;21.40;50.80;;;;;;4743616;58;20073;-25
2023/04/11 11:41:43;;;;;;;;;;;21.40;48.80;;;;;;4747737;55;20503;-26
2023/04/11 11:46:59;;;;;;;;;;;21.40;47.70;;;;;;4771398;55;20064;-28
2023/04/11 11:52:01;;;;;;;;;;;21.40;46.50;;;;;;4743773;58;20358;-25
2023/04/11 11:57:01;;;;;;;;;;;21.40;45.90;;;;;;4764544;55;21064;-28
2023/04/11 12:02:03;;;;;;;;;;;21.40;45.20;;;;;;4743408;58;20073;-27
2023/04/11 12:07:07;;;;;;;;;;;21.40;45.30;;;;;;4768110;55;20065;-23
2023/04/11 12:12:08;;;;;;;;;;;21.30;46.20;;;;;;4817183;55;20084;-22
2023/04/11 12:17:09;;;;;;;;;;;21.40;46.80;;;;;;4781354;55;20358;-26
2023/04/11 12:22:10;;;;;;;;;;;21.40;47.20;;;;;;4743522;58;20410;-27
2023/04/11 12:27:13;;;;;;;;;;;21.40;47.60;;;;;;4769446;55;20128;-30
2023/04/11 12:32:14;;;;;;;;;;;21.40;48.00;;;;;;4790781;55;20137;-27
2023/04/11 12:37:15;;;;;;;;;;;21.40;49.60;;;;;;4745387;55;20113;-28
2023/04/11 12:42:16;;;;;;;;;;;21.40;50.10;;;;;;4756187;55;20076;-24
2023/04/11 12:47:16;;;;;;;;;;;21.40;50.50;;;;;;4793035;55;20088;-25
2023/04/11 12:52:17;;;;;;;;;;;21.40;50.80;;;;;;4747905;55;20123;-26
2023/04/11 12:57:18;;;;;;;;;;;21.40;51.20;;;;;;4759066;55;20710;-30
2023/04/11 13:02:19;;;;;;;;;;;21.40;51.10;;;;;;4758826;55;20079;-30
2023/04/11 13:07:20;;;;;;;;;;;21.40;51.20;;;;;;4763772;55;20274;-25
2023/04/11 13:12:21;;;;;;;;;;;21.40;51.50;;;;;;4745192;55;20108;-31
2023/04/11 13:17:21;;;;;;;;;;;21.30;51.50;;;;;;4793294;55;20331;-24
2023/04/11 13:22:22;;;;;;;;;;;21.40;51.60;;;;;;4743010;58;20091;-27
2023/04/11 13:27:23;;;;;;;;;;;21.40;51.80;;;;;;4746647;55;20064;-26
2023/04/11 13:32:24;;;;;;;;;;;21.30;51.80;;;;;;4750899;55;20108;-28
2023/04/11 13:37:24;;;;;;;;;;;21.30;51.80;;;;;;4778590;55;20068;-25
2023/04/11 13:42:25;;;;;;;;;;;21.30;52.00;;;;;;4762926;55;20068;-25
2023/04/11 13:47:25;;;;;;;;;;;21.20;52.00;;;;;;4763252;55;20104;-27
2023/04/11 13:52:26;;;;;;;;;;;21.20;52.00;;;;;;4746028;58;20346;-26
2023/04/11 13:57:27;;;;;;;;;;;21.20;52.30;;;;;;4831625;55;20104;-23
2023/04/11 14:02:28;;;;;;;;;;;21.20;52.30;;;;;;4746591;55;20069;-26
2023/04/11 14:07:28;;;;;;;;;;;21.10;52.30;;;;;;4924250;55;20052;-26
2023/04/11 14:12:29;;;;;;;;;;;21.10;52.40;;;;;;4746182;58;20393;-27
2023/04/11 14:17:29;;;;;;;;;;;21.10;52.50;;;;;;4781263;55;20103;-23
2023/04/11 14:22:31;;;;;;;;;;;21.10;52.60;;;;;;4747086;55;20084;-23
2023/04/11 14:27:31;;;;;;;;;;;21.10;52.60;;;;;;4745938;58;20366;-24
2023/04/11 14:32:32;;;;;;;;;;;21.10;52.60;;;;;;4745829;58;20080;-22
2023/04/11 14:37:36;;;;;;;;;;;21.10;53.40;;;;;;4782782;55;20337;-29
2023/04/11 14:42:37;;;;;;;;;;;21.10;52.80;;;;;;4855935;55;20187;-25
2023/04/11 14:47:38;;;;;;;;;;;21.10;52.80;;;;;;4781000;55;20140;-25
2023/04/11 14:52:39;;;;;;;;;;;21.10;52.80;;;;;;4745984;56;20369;-24
2023/04/11 14:57:45;;;;;;;;;;;21.00;52.80;;;;;;4804637;55;20108;-28
2023/04/11 15:02:46;;;;;;;;;;;21.00;52.80;;;;;;4796691;55;20190;-26
2023/04/11 15:07:47;;;;;;;;;;;21.00;53.10;;;;;;4747832;55;20152;-27
2023/04/11 15:12:48;;;;;;;;;;;21.00;52.90;;;;;;4847553;55;20096;-27
2023/04/11 15:18:16;;;;;;;;;;;21.00;52.60;;;;;;4744923;56;20913;-23
2023/04/11 15:23:17;;;;;;;;;;;21.00;53.00;;;;;;4781178;55;20120;-21
2023/04/11 15:28:18;;;;;;;;;;;21.00;53.00;;;;;;4812680;55;20131;-31
2023/04/11 15:33:22;;;;;;;;;;;21.00;53.00;;;;;;4764892;55;20325;-28
2023/04/11 15:38:23;;;;;;;;;;;21.00;53.00;;;;;;4824928;55;20335;-28
2023/04/11 15:43:24;;;;;;;;;;;21.00;52.90;;;;;;4802325;55;20112;-28
2023/04/11 15:48:24;;;;;;;;;;;21.00;52.90;;;;;;4772556;55;20183;-28
2023/04/11 15:53:25;;;;;;;;;;;21.00;52.90;;;;;;4803798;55;20112;-29
2023/04/11 15:58:26;;;;;;;;;;;21.00;53.00;;;;;;4776507;55;20116;-28
2023/04/11 16:03:30;;;;;;;;;;;20.90;52.90;;;;;;4766417;55;20104;-29
2023/04/11 16:08:31;;;;;;;;;;;20.90;52.90;;;;;;4759729;55;20480;-28
2023/04/11 16:13:32;;;;;;;;;;;21.00;53.00;;;;;;4787762;55;20060;-27
2023/04/11 16:18:32;;;;;;;;;;;21.00;53.00;;;;;;4929709;55;20310;-29
2023/04/11 16:23:33;;;;;;;;;;;21.00;53.00;;;;;;4752248;55;20358;-28
2023/04/11 16:28:34;;;;;;;;;;;21.00;53.00;;;;;;4749860;55;20093;-27
2023/04/11 16:33:34;;;;;;;;;;;21.00;53.00;;;;;;4747258;55;20080;-29
2023/04/11 16:38:44;;;;;;;;;;;20.90;53.00;;;;;;4747360;55;20072;-28
2023/04/11 16:43:45;;;;;;;;;;;20.90;53.00;;;;;;4746064;56;20113;-23
2023/04/11 16:48:45;;;;;;;;;;;20.90;53.00;;;;;;4919616;55;20299;-28
2023/04/11 16:53:46;;;;;;;;;;;21.00;53.00;;;;;;4790265;55;20061;-28
2023/04/11 16:58:46;;;;;;;;;;;20.90;53.00;;;;;;4794111;55;20343;-28
2023/04/11 17:03:47;;;;;;;;;;;20.90;53.00;;;;;;4746549;55;20072;-28
2023/04/11 17:08:48;;;;;;;;;;;20.90;53.00;;;;;;4818364;55;20156;-31
2023/04/11 17:13:49;;;;;;;;;;;20.90;53.00;;;;;;4756466;55;20132;-32
2023/04/11 17:18:50;;;;;;;;;;;20.90;52.90;;;;;;4849842;55;20116;-28
2023/04/11 17:23:50;;;;;;;;;;;20.90;53.00;;;;;;4751061;55;20123;-30
2023/04/11 17:28:51;;;;;;;;;;;20.90;52.90;;;;;;4791238;55;20120;-27
2023/04/11 17:33:52;;;;;;;;;;;20.90;52.90;;;;;;4850211;55;20295;-29
2023/04/11 17:38:53;;;;;;;;;;;20.90;52.90;;;;;;4746606;55;20135;-31
2023/04/11 17:43:55;;;;;;;;;;;20.90;52.90;;;;;;4747929;55;20318;-30
2023/04/11 17:48:58;;;;;;;;;;;20.90;52.90;;;;;;4824749;55;20136;-32
2023/04/11 17:53:59;;;;;;;;;;;20.90;52.90;;;;;;4805614;55;20346;-29
2023/04/11 17:59:00;;;;;;;;;;;20.90;52.90;;;;;;4745969;58;20326;-28
2023/04/11 18:04:00;;;;;;;;;;;20.90;52.90;;;;;;4746168;56;20112;-31
2023/04/11 18:09:01;;;;;;;;;;;20.90;52.90;;;;;;4762406;55;20080;-32
2023/04/11 18:14:02;;;;;;;;;;;20.90;53.50;;;;;;4809448;55;20165;-30
2023/04/11 18:19:03;;;;;;;;;;;20.90;52.90;;;;;;4747031;55;20064;-28
2023/04/11 18:24:03;;;;;;;;;;;20.90;53.00;;;;;;4798540;55;20105;-32
2023/04/11 18:29:04;;;;;;;;;;;20.90;53.00;;;;;;4746809;58;20061;-29
2023/04/11 18:34:05;;;;;;;;;;;20.90;52.90;;;;;;4785633;55;20306;-30
2023/04/11 18:39:06;;;;;;;;;;;20.90;52.80;;;;;;4809842;55;20084;-29
2023/04/11 18:44:07;;;;;;;;;;;20.90;52.80;;;;;;4776713;55;20379;-28
2023/04/11 18:49:07;;;;;;;;;;;20.90;52.80;;;;;;4765874;55;20053;-28
2023/04/11 18:54:08;;;;;;;;;;;20.90;52.80;;;;;;4746116;58;20121;-29
2023/04/11 18:59:09;;;;;;;;;;;20.90;53.00;;;;;;4779989;55;20143;-29
2023/04/11 19:04:10;;;;;;;;;;;20.90;52.80;;;;;;4765055;55;20302;-29
2023/04/11 19:09:12;;;;;;;;;;;20.90;52.90;;;;;;4746493;58;20335;-26
2023/04/11 19:14:16;;;;;;;;;;;20.90;52.90;;;;;;4764179;55;20291;-28
2023/04/11 19:19:16;;;;;;;;;;;20.80;52.90;;;;;;4746205;58;20117;-29
2023/04/11 19:24:17;;;;;;;;;;;20.90;52.90;;;;;;4851415;55;20076;-30
2023/04/11 19:29:17;;;;;;;;;;;20.90;52.90;;;;;;4759033;55;20096;-28
2023/04/11 19:34:21;;;;;;;;;;;20.90;53.00;;;;;;4852774;55;20064;-28
2023/04/11 19:39:21;;;;;;;;;;;20.80;53.00;;;;;;4882434;55;20148;-32
2023/04/11 19:44:22;;;;;;;;;;;20.80;53.00;;;;;;4834974;55;20066;-28
2023/04/11 19:49:23;;;;;;;;;;;20.90;53.10;;;;;;4789417;55;20509;-27
2023/04/11 19:54:23;;;;;;;;;;;20.90;53.00;;;;;;4818909;55;20056;-29
2023/04/11 19:59:24;;;;;;;;;;;20.90;53.10;;;;;;4746090;56;20064;-30
2023/04/11 20:04:25;;;;;;;;;;;20.90;53.20;;;;;;4768129;55;20117;-32
2023/04/11 20:09:28;;;;;;;;;;;20.80;53.10;;;;;;4979877;55;20085;-29
2023/04/11 20:14:29;;;;;;;;;;;20.90;53.00;;;;;;4746175;58;20128;-31
2023/04/11 20:19:31;;;;;;;;;;;20.90;53.00;;;;;;4810689;55;20107;-29
2023/04/11 20:24:32;;;;;;;;;;;20.80;53.00;;;;;;4816707;55;20314;-28
2023/04/11 20:29:32;;;;;;;;;;;20.90;53.00;;;;;;4746603;58;20097;-31
2023/04/11 20:34:33;;;;;;;;;;;20.90;53.10;;;;;;4926391;55;20163;-31
2023/04/11 20:39:34;;;;;;;;;;;20.80;53.00;;;;;;4792847;55;20306;-31
2023/04/11 20:44:35;;;;;;;;;;;20.80;53.10;;;;;;4798264;55;20064;-27
2023/04/11 20:49:35;;;;;;;;;;;20.80;53.00;;;;;;4746367;58;20299;-29
2023/04/11 20:54:36;;;;;;;;;;;20.80;53.10;;;;;;4746082;58;20120;-27
2023/04/11 20:59:37;;;;;;;;;;;20.80;52.90;;;;;;4894716;55;20350;-28
2023/04/11 21:04:37;;;;;;;;;;;20.90;53.10;;;;;;4759437;55;20068;-27
2023/04/11 21:09:38;;;;;;;;;;;20.80;53.00;;;;;;4824081;55;20263;-28
2023/04/11 21:14:39;;;;;;;;;;;20.80;53.10;;;;;;4782658;55;20243;-31
2023/04/11 21:19:40;;;;;;;;;;;20.80;53.20;;;;;;4746541;58;20329;-32
2023/04/11 21:24:41;;;;;;;;;;;20.80;53.20;;;;;;4798614;55;20105;-29
2023/04/11 21:29:41;;;;;;;;;;;20.80;53.20;;;;;;4815175;55;20104;-28
2023/04/11 21:34:45;;;;;;;;;;;20.80;53.20;;;;;;4759417;55;20322;-32
2023/04/11 21:39:45;;;;;;;;;;;20.80;53.10;;;;;;4779935;55;20076;-31
2023/04/11 21:44:46;;;;;;;;;;;20.80;53.40;;;;;;4813132;55;20152;-30
2023/04/11 21:49:47;;;;;;;;;;;20.80;53.40;;;;;;4825381;55;20068;-29
2023/04/11 21:54:48;;;;;;;;;;;20.80;53.30;;;;;;4746706;58;20132;-32
2023/04/11 21:59:48;;;;;;;;;;;20.80;53.30;;;;;;4782167;55;20347;-30
2023/04/11 22:04:54;;;;;;;;;;;20.80;53.30;;;;;;4782050;55;20056;-28
2023/04/11 22:10:08;;;;;;;;;;;20.80;53.30;;;;;;4870234;55;20342;-32
2023/04/11 22:15:11;;;;;;;;;;;20.80;53.30;;;;;;4832611;55;20461;-31
2023/04/11 22:20:12;;;;;;;;;;;20.80;53.30;;;;;;4752341;55;20358;-27
2023/04/11 22:25:13;;;;;;;;;;;20.80;53.30;;;;;;4803914;55;20108;-28
2023/04/11 22:30:15;;;;;;;;;;;20.80;53.30;;;;;;4746816;58;20306;-28
2023/04/11 22:35:16;;;;;;;;;;;20.80;53.40;;;;;;4827920;55;20286;-23
2023/04/11 22:40:21;;;;;;;;;;;20.80;53.40;;;;;;4841404;55;20104;-30
2023/04/11 22:45:22;;;;;;;;;;;20.80;53.40;;;;;;4840405;55;20072;-27
2023/04/11 22:50:22;;;;;;;;;;;20.80;53.40;;;;;;4762633;55;20120;-33
2023/04/11 22:55:23;;;;;;;;;;;20.80;53.40;;;;;;4776409;55;20092;-27
2023/04/11 23:00:24;;;;;;;;;;;20.80;53.40;;;;;;4746454;55;20100;-27
2023/04/11 23:05:25;;;;;;;;;;;20.80;53.40;;;;;;4946877;55;20131;-28
2023/04/11 23:10:27;;;;;;;;;;;20.80;53.50;;;;;;4812956;55;20108;-32
2023/04/11 23:15:28;;;;;;;;;;;20.80;53.60;;;;;;4888753;55;20108;-27
2023/04/11 23:20:29;;;;;;;;;;;20.80;53.50;;;;;;4769189;55;20113;-28
2023/04/11 23:25:29;;;;;;;;;;;20.80;53.40;;;;;;4746037;58;20156;-31
2023/04/11 23:30:30;;;;;;;;;;;20.80;53.40;;;;;;4746460;58;20868;-29
2023/04/11 23:35:32;;;;;;;;;;;20.80;53.40;;;;;;4944076;55;20322;-27
2023/04/11 23:40:33;;;;;;;;;;;20.80;53.50;;;;;;4800377;55;20337;-29
2023/04/11 23:45:34;;;;;;;;;;;20.80;53.40;;;;;;4879080;55;20072;-30
2023/04/11 23:50:35;;;;;;;;;;;20.80;53.50;;;;;;4754491;55;20287;-24
2023/04/11 23:55:35;;;;;;;;;;;20.80;53.60;;;;;;4783563;55;20116;-31
